createdAt,value
2018-12-18T00:00:10.337Z,95185.23
2018-12-18T00:02:38.042Z,95160.42
2018-12-18T00:05:07.960Z,95184.19
2018-12-18T00:07:35.672Z,95186.62
2018-12-18T00:10:04.870Z,95176.69
2018-12-18T00:12:32.464Z,95183.53
2018-12-18T00:15:00.195Z,95180.97
2018-12-18T00:17:27.887Z,95190.33
2018-12-18T00:19:55.673Z,95194.35
2018-12-18T00:22:23.379Z,95190.22
2018-12-18T00:24:52.184Z,95193.21
2018-12-18T00:27:20.032Z,95192.97
2018-12-18T00:29:47.768Z,95182.94
2018-12-18T00:32:15.498Z,95179.39
2018-12-18T00:34:43.142Z,95178.64
2018-12-18T00:37:10.802Z,95183.77
2018-12-18T00:39:38.576Z,95187.61
2018-12-18T00:42:08.286Z,95189.66
2018-12-18T00:44:35.946Z,95197.20
2018-12-18T00:47:03.549Z,95192.44
2018-12-18T00:49:31.223Z,95188.19
2018-12-18T00:51:58.832Z,95193.71
2018-12-18T00:54:26.530Z,95201.58
2018-12-18T00:56:54.200Z,95186.09
2018-12-18T00:59:21.844Z,95192.55
2018-12-18T01:01:55.181Z,95199.81
2018-12-18T01:04:22.820Z,95204.56
2018-12-18T01:06:50.485Z,95220.20
2018-12-18T01:09:18.153Z,95216.36
2018-12-18T01:11:46.056Z,95219.70
2018-12-18T01:14:13.728Z,95213.78
2018-12-18T01:16:41.334Z,95214.16
2018-12-18T01:19:08.999Z,95220.59
2018-12-18T01:21:36.730Z,95217.25
2018-12-18T01:24:04.426Z,95215.52
2018-12-18T01:26:32.106Z,95217.92
2018-12-18T01:28:59.876Z,95221.28
2018-12-18T01:31:27.538Z,95228.63
2018-12-18T01:33:59.260Z,95222.20
2018-12-18T01:36:25.004Z,95222.63
2018-12-18T01:38:52.739Z,95220.19
2018-12-18T01:41:21.408Z,95220.94
2018-12-18T01:43:49.123Z,95215.00
2018-12-18T01:46:16.801Z,95219.12
2018-12-18T01:48:44.477Z,95219.09
2018-12-18T01:51:12.876Z,95218.53
2018-12-18T01:53:40.459Z,95224.17
2018-12-18T01:56:08.095Z,95220.32
2018-12-18T01:58:35.679Z,95214.68
2018-12-18T02:01:03.354Z,95214.13
2018-12-18T02:03:30.937Z,95206.09
2018-12-18T02:05:58.662Z,95206.30
2018-12-18T02:08:26.269Z,95205.55
2018-12-18T02:10:53.992Z,95202.70
2018-12-18T02:13:21.671Z,95202.08
2018-12-18T02:15:49.295Z,95200.86
2018-12-18T02:18:16.948Z,95201.58
2018-12-18T02:20:44.533Z,95198.48
2018-12-18T02:23:12.314Z,95207.72
2018-12-18T02:25:39.971Z,95207.98
2018-12-18T02:28:07.600Z,95205.02
2018-12-18T02:30:35.209Z,95198.69
2018-12-18T02:33:02.940Z,95196.15
2018-12-18T02:35:30.580Z,95200.61
2018-12-18T02:37:58.241Z,95202.08
2018-12-18T02:40:25.955Z,95205.89
2018-12-18T02:42:53.683Z,95203.44
2018-12-18T02:45:21.337Z,95202.02
2018-12-18T02:47:48.964Z,95194.50
2018-12-18T02:50:16.685Z,95197.75
2018-12-18T02:52:44.313Z,95193.23
2018-12-18T02:55:11.896Z,95201.55
2018-12-18T02:57:39.617Z,95201.48
2018-12-18T03:00:07.848Z,95199.40
2018-12-18T03:02:35.436Z,95199.27
2018-12-18T03:05:03.550Z,95193.77
2018-12-18T03:07:31.136Z,95199.53
2018-12-18T03:09:58.731Z,95203.02
2018-12-18T03:12:26.378Z,95201.70
2018-12-18T03:14:53.958Z,95195.92
2018-12-18T03:17:21.536Z,95196.84
2018-12-18T03:19:49.174Z,95185.48
2018-12-18T03:22:16.842Z,95183.24
2018-12-18T03:24:44.678Z,95180.11
2018-12-18T03:27:12.382Z,95178.45
2018-12-18T03:29:40.031Z,95188.54
2018-12-18T03:32:09.816Z,95187.06
2018-12-18T03:34:37.483Z,95188.14
2018-12-18T03:37:05.096Z,95179.80
2018-12-18T03:39:32.728Z,95178.28
2018-12-18T03:42:00.335Z,95176.31
2018-12-18T03:44:27.980Z,95175.14
2018-12-18T03:46:55.737Z,95179.45
2018-12-18T03:49:23.539Z,95183.26
2018-12-18T03:51:51.253Z,95176.10
2018-12-18T03:54:18.928Z,95179.34
2018-12-18T03:56:47.441Z,95170.42
2018-12-18T03:59:15.088Z,95171.89
2018-12-18T04:01:42.674Z,95175.34
2018-12-18T04:04:10.249Z,95170.27
2018-12-18T04:06:37.913Z,95176.35
2018-12-18T04:09:06.281Z,95174.73
2018-12-18T04:11:36.005Z,95179.80
2018-12-18T04:14:03.602Z,95180.52
2018-12-18T04:16:31.247Z,95180.27
2018-12-18T04:18:58.850Z,95187.52
2018-12-18T04:21:26.502Z,95187.23
2018-12-18T04:23:54.144Z,95179.59
2018-12-18T04:26:21.780Z,95186.45
2018-12-18T04:28:49.469Z,95193.31
2018-12-18T04:31:17.135Z,95197.77
2018-12-18T04:33:44.783Z,95197.61
2018-12-18T04:36:12.362Z,95197.56
2018-12-18T04:38:40.005Z,95198.39
2018-12-18T04:41:07.604Z,95198.84
2018-12-18T04:43:35.270Z,95195.03
2018-12-18T04:46:02.876Z,95199.05
2018-12-18T04:48:30.568Z,95201.17
2018-12-18T04:50:58.249Z,95205.23
2018-12-18T04:53:25.875Z,95205.14
2018-12-18T04:55:53.477Z,95202.85
2018-12-18T04:58:21.129Z,95205.28
2018-12-18T05:00:48.713Z,95203.06
2018-12-18T05:03:16.364Z,95200.61
2018-12-18T05:05:44.024Z,95199.29
2018-12-18T05:08:11.615Z,95195.58
2018-12-18T05:10:39.270Z,95204.26
2018-12-18T05:13:06.938Z,95201.02
2018-12-18T05:15:34.835Z,95199.19
2018-12-18T05:18:02.499Z,95199.45
2018-12-18T05:20:30.245Z,95202.03
2018-12-18T05:22:57.987Z,95199.39
2018-12-18T05:25:25.722Z,95204.02
2018-12-18T05:27:53.778Z,95206.14
2018-12-18T05:30:21.950Z,95213.05
2018-12-18T05:32:49.954Z,95201.28
2018-12-18T05:35:17.604Z,95197.48
2018-12-18T05:37:45.324Z,95197.92
2018-12-18T05:40:13.070Z,95199.91
2018-12-18T05:42:40.952Z,95203.25
2018-12-18T05:45:08.712Z,95196.80
2018-12-18T05:47:36.406Z,95201.17
2018-12-18T05:50:05.717Z,95194.38
2018-12-18T05:52:33.437Z,95195.55
2018-12-18T05:55:01.188Z,95197.27
2018-12-18T05:57:29.003Z,95196.50
2018-12-18T05:59:56.738Z,95191.48
2018-12-18T06:02:24.396Z,95197.63
2018-12-18T06:04:51.985Z,95203.30
2018-12-18T06:07:19.610Z,95198.95
2018-12-18T06:09:47.211Z,95194.45
2018-12-18T06:12:14.912Z,95201.53
2018-12-18T06:14:42.531Z,95202.30
2018-12-18T06:17:10.171Z,95200.56
2018-12-18T06:19:37.824Z,95200.02
2018-12-18T06:22:05.620Z,95206.51
2018-12-18T06:24:33.224Z,95203.66
2018-12-18T06:27:00.868Z,95209.36
2018-12-18T06:29:28.464Z,95215.02
2018-12-18T06:31:56.256Z,95210.45
2018-12-18T06:34:23.837Z,95209.19
2018-12-18T06:36:51.477Z,95207.97
2018-12-18T06:39:19.175Z,95212.38
2018-12-18T06:41:47.074Z,95216.03
2018-12-18T06:44:14.809Z,95205.02
2018-12-18T06:46:42.477Z,95208.58
2018-12-18T06:49:10.132Z,95215.58
2018-12-18T06:51:38.037Z,95223.44
2018-12-18T06:54:05.654Z,95227.15
2018-12-18T06:56:33.462Z,95229.20
2018-12-18T06:59:01.061Z,95226.05
2018-12-18T07:01:28.663Z,95223.41
2018-12-18T07:03:56.304Z,95225.84
2018-12-18T07:06:23.963Z,95228.09
2018-12-18T07:08:51.602Z,95232.34
2018-12-18T07:11:19.261Z,95241.98
2018-12-18T07:13:46.898Z,95232.34
2018-12-18T07:16:14.559Z,95237.08
2018-12-18T07:18:42.473Z,95230.88
2018-12-18T07:21:10.267Z,95231.27
2018-12-18T07:23:37.883Z,95235.33
2018-12-18T07:26:05.550Z,95230.62
2018-12-18T07:28:33.288Z,95237.82
2018-12-18T07:31:01.005Z,95238.94
2018-12-18T07:33:29.055Z,95234.27
2018-12-18T07:35:56.648Z,95232.36
2018-12-18T07:38:25.701Z,95240.34
2018-12-18T07:40:53.286Z,95237.37
2018-12-18T07:43:21.015Z,95242.10
2018-12-18T07:45:48.717Z,95246.73
2018-12-18T07:48:16.363Z,95248.31
2018-12-18T07:50:43.997Z,95247.99
2018-12-18T07:53:11.768Z,95244.20
2018-12-18T07:55:39.388Z,95248.05
2018-12-18T07:58:07.080Z,95246.75
2018-12-18T08:00:35.758Z,95246.69
2018-12-18T08:03:03.473Z,95253.05
2018-12-18T08:05:31.249Z,95248.81
2018-12-18T08:07:58.907Z,95247.78
2018-12-18T08:10:27.551Z,95255.83
2018-12-18T08:12:55.231Z,95257.09
2018-12-18T08:15:22.836Z,95256.66
2018-12-18T08:17:50.497Z,95261.55
2018-12-18T08:20:18.154Z,95270.67
2018-12-18T08:22:45.910Z,95263.64
2018-12-18T08:25:13.566Z,95258.69
2018-12-18T08:27:41.400Z,95253.26
2018-12-18T08:30:09.043Z,95251.31
2018-12-18T08:32:36.666Z,95252.08
2018-12-18T08:35:05.320Z,95250.25
2018-12-18T08:37:33.259Z,95242.58
2018-12-18T08:40:00.993Z,95239.14
2018-12-18T08:42:28.579Z,95242.33
2018-12-18T08:44:56.798Z,95249.00
2018-12-18T08:47:24.470Z,95248.41
2018-12-18T08:49:52.137Z,95248.48
2018-12-18T08:52:20.047Z,95243.45
2018-12-18T08:54:47.661Z,95250.55
2018-12-18T08:57:15.617Z,95246.50
2018-12-18T08:59:43.478Z,95236.13
2018-12-18T09:02:11.247Z,95240.52
2018-12-18T09:04:38.923Z,95240.90
2018-12-18T09:07:06.615Z,95243.48
2018-12-18T09:09:34.266Z,95235.79
2018-12-18T09:12:01.927Z,95250.11
2018-12-18T09:14:30.077Z,95257.27
2018-12-18T09:17:03.161Z,95249.25
2018-12-18T09:19:30.842Z,95241.78
2018-12-18T09:21:58.623Z,95241.91
2018-12-18T09:24:26.313Z,95237.72
2018-12-18T09:26:53.918Z,95236.06
2018-12-18T09:29:21.572Z,95233.67
2018-12-18T09:31:49.440Z,95232.95
2018-12-18T09:34:17.110Z,95228.05
2018-12-18T09:36:45.588Z,95223.25
2018-12-18T09:39:19.266Z,95220.73
2018-12-18T09:41:57.776Z,95212.34
2018-12-18T09:44:25.843Z,95212.48
2018-12-18T09:46:53.433Z,95207.45
2018-12-18T09:49:21.302Z,95206.66
2018-12-18T09:51:48.937Z,95197.66
2018-12-18T09:54:16.919Z,95190.56
2018-12-18T09:56:51.964Z,95187.24
2018-12-18T09:59:19.596Z,95185.75
2018-12-18T10:01:47.189Z,95180.79
2018-12-18T10:04:14.898Z,95180.64
2018-12-18T10:06:42.676Z,95177.21
2018-12-18T10:09:10.415Z,95172.12
2018-12-18T10:11:38.192Z,95166.81
2018-12-18T10:14:05.831Z,95164.94
2018-12-18T10:16:33.445Z,95162.88
2018-12-18T10:19:01.285Z,95157.62
2018-12-18T10:21:28.922Z,95155.03
2018-12-18T10:23:56.610Z,95149.70
2018-12-18T10:26:24.275Z,95138.55
2018-12-18T10:28:51.851Z,95140.81
2018-12-18T10:31:19.514Z,95131.37
2018-12-18T10:33:48.109Z,95124.52
2018-12-18T10:36:16.030Z,95122.86
2018-12-18T10:38:43.696Z,95136.84
2018-12-18T10:41:11.352Z,95119.45
2018-12-18T10:43:38.987Z,95112.91
2018-12-18T10:46:06.623Z,95113.51
2018-12-18T10:48:34.247Z,95114.87
2018-12-18T10:51:01.881Z,95110.01
2018-12-18T10:53:29.502Z,95107.13
2018-12-18T10:55:57.206Z,95102.03
2018-12-18T10:58:24.961Z,95092.81
2018-12-18T11:00:58.318Z,95090.31
2018-12-18T11:03:26.997Z,95090.03
2018-12-18T11:05:54.812Z,95086.37
2018-12-18T11:08:22.470Z,95088.70
2018-12-18T11:10:50.879Z,95087.59
2018-12-18T11:13:18.731Z,95078.65
2018-12-18T11:15:46.454Z,95071.38
2018-12-18T11:18:14.301Z,95066.23
2018-12-18T11:20:42.002Z,95063.79
2018-12-18T11:23:09.974Z,95061.25
2018-12-18T11:25:37.615Z,95054.41
2018-12-18T11:28:05.886Z,95062.08
2018-12-18T11:30:33.538Z,95055.00
2018-12-18T11:33:01.175Z,95053.77
2018-12-18T11:35:28.816Z,95052.11
2018-12-18T11:37:56.956Z,95048.32
2018-12-18T11:40:24.696Z,95043.00
2018-12-18T11:42:52.843Z,95043.16
2018-12-18T11:45:20.662Z,95034.58
2018-12-18T11:47:49.949Z,95039.39
2018-12-18T11:50:17.790Z,95035.72
2018-12-18T11:52:45.655Z,95032.47
2018-12-18T11:55:13.294Z,95030.05
2018-12-18T11:57:41.022Z,95021.65
2018-12-18T12:00:10.621Z,95023.73
2018-12-18T12:02:42.813Z,95027.98
2018-12-18T12:05:07.869Z,95019.09
2018-12-18T12:07:35.660Z,95011.78
2018-12-18T12:10:03.940Z,95011.66
2018-12-18T12:12:31.689Z,95008.06
2018-12-18T12:14:59.450Z,95004.69
2018-12-18T12:17:27.724Z,95003.96
2018-12-18T12:19:55.454Z,95008.90
2018-12-18T12:22:23.209Z,95006.48
2018-12-18T12:24:50.860Z,95002.88
2018-12-18T12:27:24.067Z,94998.14
2018-12-18T12:29:51.736Z,95001.21
2018-12-18T12:32:19.338Z,95002.11
2018-12-18T12:34:47.241Z,95007.16
2018-12-18T12:37:14.815Z,95003.70
2018-12-18T12:39:42.453Z,95003.08
2018-12-18T12:42:10.097Z,94997.16
2018-12-18T12:44:37.678Z,94999.70
2018-12-18T12:47:05.298Z,94998.43
2018-12-18T12:49:38.587Z,95001.98
2018-12-18T12:52:06.160Z,94998.63
2018-12-18T12:54:33.743Z,95001.34
2018-12-18T12:57:01.399Z,95002.29
2018-12-18T12:59:29.089Z,95001.73
2018-12-18T13:01:56.749Z,94997.77
2018-12-18T13:04:24.360Z,94989.88
2018-12-18T13:06:52.066Z,94991.52
2018-12-18T13:09:19.687Z,94993.36
2018-12-18T13:11:47.377Z,94993.02
2018-12-18T13:14:15.001Z,94989.90
2018-12-18T13:16:42.729Z,94987.48
2018-12-18T13:19:10.341Z,94980.13
2018-12-18T13:21:39.201Z,94980.56
2018-12-18T13:24:06.817Z,94973.28
2018-12-18T13:26:34.669Z,94971.34
2018-12-18T13:29:02.312Z,94972.39
2018-12-18T13:31:30.928Z,94967.25
2018-12-18T13:33:58.652Z,94971.80
2018-12-18T13:36:26.288Z,94964.36
2018-12-18T13:38:54.008Z,94962.75
2018-12-18T13:41:21.690Z,94960.20
2018-12-18T13:43:49.323Z,94951.19
2018-12-18T13:46:17.043Z,94943.33
2018-12-18T13:48:44.712Z,94942.51
2018-12-18T13:51:12.387Z,94938.67
2018-12-18T13:53:40.063Z,94942.20
2018-12-18T13:56:07.863Z,94933.16
2018-12-18T13:58:35.466Z,94925.76
2018-12-18T14:01:03.197Z,94928.66
2018-12-18T14:03:30.990Z,94934.94
2018-12-18T14:05:58.657Z,94926.20
2018-12-18T14:08:27.105Z,94928.27
2018-12-18T14:10:54.870Z,94924.61
2018-12-18T14:13:22.597Z,94919.48
2018-12-18T14:15:50.299Z,94915.58
2018-12-18T14:18:17.887Z,94913.86
2018-12-18T14:20:45.586Z,94908.03
2018-12-18T14:23:14.354Z,94909.81
2018-12-18T14:25:42.773Z,94909.30
2018-12-18T14:28:10.428Z,94912.66
2018-12-18T14:30:38.211Z,94908.05
2018-12-18T14:33:06.706Z,94905.55
2018-12-18T14:35:34.456Z,94896.17
2018-12-18T14:38:02.928Z,94897.57
2018-12-18T14:40:30.740Z,94898.52
2018-12-18T14:42:58.618Z,94902.91
2018-12-18T14:45:26.356Z,94896.46
2018-12-18T14:47:55.376Z,94898.41
2018-12-18T14:50:23.335Z,94902.43
2018-12-18T14:52:51.309Z,94903.52
2018-12-18T14:55:20.615Z,94906.40
2018-12-18T14:57:48.682Z,94904.92
2018-12-18T15:00:18.935Z,94907.08
2018-12-18T15:02:46.976Z,94904.28
2018-12-18T15:05:14.759Z,94903.74
2018-12-18T15:07:42.432Z,94904.00
2018-12-18T15:10:11.051Z,94907.70
2018-12-18T15:12:40.857Z,94904.63
2018-12-18T15:15:09.593Z,94877.49
2018-12-18T15:17:37.276Z,94902.48
2018-12-18T15:20:09.405Z,94900.11
2018-12-18T15:22:37.056Z,94896.20
2018-12-18T15:25:06.808Z,94897.89
2018-12-18T15:27:35.262Z,94889.11
2018-12-18T15:30:05.496Z,94889.85
2018-12-18T15:32:33.614Z,94890.12
2018-12-18T15:35:01.457Z,94889.42
2018-12-18T15:37:30.547Z,94892.24
2018-12-18T15:40:02.248Z,94892.94
2018-12-18T15:42:31.980Z,94895.53
2018-12-18T15:45:00.073Z,94891.06
2018-12-18T15:47:28.370Z,94895.22
2018-12-18T15:49:57.314Z,94900.73
2018-12-18T15:52:26.443Z,94897.56
2018-12-18T15:54:55.270Z,94898.69
2018-12-18T15:57:26.154Z,94897.62
2018-12-18T15:59:54.028Z,94901.63
2018-12-18T16:02:25.587Z,94892.78
2018-12-18T16:04:53.471Z,94887.22
2018-12-18T16:07:21.153Z,94893.59
2018-12-18T16:09:48.970Z,94894.76
2018-12-18T16:12:17.873Z,94889.44
2018-12-18T16:14:45.619Z,94901.24
2018-12-18T16:17:13.514Z,94904.98
2018-12-18T16:19:41.497Z,94898.23
2018-12-18T16:22:11.109Z,94904.39
2018-12-18T16:24:39.762Z,94903.86
2018-12-18T16:27:07.616Z,94893.45
2018-12-18T16:29:35.471Z,94901.60
2018-12-18T16:32:03.259Z,94894.67
2018-12-18T16:34:32.176Z,94890.92
2018-12-18T16:37:00.064Z,94886.42
2018-12-18T16:39:29.623Z,94893.87
2018-12-18T16:41:58.907Z,94889.77
2018-12-18T16:44:26.587Z,94895.83
2018-12-18T16:46:55.219Z,94893.59
2018-12-18T16:49:23.352Z,94892.32
2018-12-18T16:51:51.074Z,94891.77
2018-12-18T16:54:19.927Z,94896.73
2018-12-18T16:56:49.212Z,94892.83
2018-12-18T16:59:18.161Z,94891.02
2018-12-18T17:01:46.225Z,94890.90
2018-12-18T17:04:14.017Z,94887.14
2018-12-18T17:06:41.709Z,94890.98
2018-12-18T17:09:09.327Z,94887.68
2018-12-18T17:11:38.215Z,94895.84
2018-12-18T17:14:06.378Z,94903.58
2018-12-18T17:16:35.096Z,94902.59
2018-12-18T17:19:04.186Z,94902.34
2018-12-18T17:21:32.764Z,94902.42
2018-12-18T17:24:01.266Z,94902.79
2018-12-18T17:26:29.056Z,94898.42
2018-12-18T17:28:58.669Z,94906.52
2018-12-18T17:31:26.697Z,94905.42
2018-12-18T17:33:55.891Z,94902.19
2018-12-18T17:36:27.294Z,94899.41
2018-12-18T17:38:56.127Z,94894.77
2018-12-18T17:41:25.005Z,94897.44
2018-12-18T17:43:53.168Z,94891.63
2018-12-18T17:46:26.337Z,94896.92
2018-12-18T17:48:55.437Z,94890.38
2018-12-18T17:51:23.194Z,94896.93
2018-12-18T17:53:50.841Z,94902.30
2018-12-18T17:56:18.508Z,94904.14
2018-12-18T17:58:46.130Z,94899.58
2018-12-18T18:01:14.983Z,94912.70
2018-12-18T18:03:42.663Z,94911.07
2018-12-18T18:06:10.429Z,94905.19
2018-12-18T18:08:39.259Z,94909.81
2018-12-18T18:11:06.976Z,94910.38
2018-12-18T18:13:34.614Z,94914.31
2018-12-18T18:16:02.320Z,94911.58
2018-12-18T18:18:29.960Z,94910.50
2018-12-18T18:20:57.800Z,94909.00
2018-12-18T18:23:25.433Z,94911.69
2018-12-18T18:25:53.394Z,94912.27
2018-12-18T18:28:20.997Z,94912.30
2018-12-18T18:30:48.682Z,94907.56
2018-12-18T18:33:16.962Z,94897.30
2018-12-18T18:35:45.139Z,94911.86
2018-12-18T18:38:12.865Z,94911.02
2018-12-18T18:40:41.398Z,94919.70
2018-12-18T18:43:09.175Z,94914.85
2018-12-18T18:45:36.971Z,94918.67
2018-12-18T18:48:04.858Z,94927.08
2018-12-18T18:50:33.779Z,94926.19
2018-12-18T18:53:01.588Z,94922.70
2018-12-18T18:55:29.299Z,94914.17
2018-12-18T18:57:56.949Z,94918.30
2018-12-18T19:00:26.009Z,94921.67
2018-12-18T19:02:54.986Z,94923.86
2018-12-18T19:05:22.852Z,94916.34
2018-12-18T19:07:56.412Z,94910.47
2018-12-18T19:10:23.012Z,94912.89
2018-12-18T19:12:53.094Z,94905.27
2018-12-18T19:15:20.952Z,94911.14
2018-12-18T19:17:48.819Z,94911.27
2018-12-18T19:20:16.890Z,94904.92
2018-12-18T19:22:48.200Z,94905.21
2018-12-18T19:25:16.803Z,94909.84
2018-12-18T19:27:46.758Z,94916.38
2018-12-18T19:30:14.780Z,94902.91
2018-12-18T19:32:42.833Z,94912.02
2018-12-18T19:35:11.045Z,94916.77
2018-12-18T19:37:39.639Z,94913.47
2018-12-18T19:40:09.046Z,94907.94
2018-12-18T19:42:37.158Z,94908.19
2018-12-18T19:45:06.472Z,94906.17
2018-12-18T19:47:36.636Z,94901.66
2018-12-18T19:50:05.123Z,94897.00
2018-12-18T19:52:34.713Z,94911.29
2018-12-18T19:55:02.969Z,94903.34
2018-12-18T19:57:30.920Z,94912.23
2018-12-18T19:59:58.713Z,94909.11
2018-12-18T20:02:28.214Z,94911.64
2018-12-18T20:04:56.030Z,94908.51
2018-12-18T20:07:23.901Z,94908.59
2018-12-18T20:09:51.947Z,94905.70
2018-12-18T20:12:19.969Z,94909.14
2018-12-18T20:14:48.753Z,94908.69
2018-12-18T20:17:16.592Z,94905.52
2018-12-18T20:19:45.484Z,94904.36
2018-12-18T20:22:13.535Z,94905.41
2018-12-18T20:24:42.631Z,94899.19
2018-12-18T20:27:11.547Z,94893.66
2018-12-18T20:29:41.391Z,94892.63
2018-12-18T20:32:10.327Z,94889.53
2018-12-18T20:34:39.735Z,94881.36
2018-12-18T20:37:08.059Z,94877.07
2018-12-18T20:39:36.941Z,94885.74
2018-12-18T20:42:04.932Z,94893.30
2018-12-18T20:44:33.611Z,94885.70
2018-12-18T20:47:01.569Z,94886.64
2018-12-18T20:49:30.306Z,94890.14
2018-12-18T20:51:58.388Z,94885.77
2018-12-18T20:54:27.918Z,94880.77
2018-12-18T20:56:55.982Z,94882.36
2018-12-18T20:59:23.901Z,94881.47
2018-12-18T21:01:51.764Z,94876.16
2018-12-18T21:04:19.580Z,94885.11
2018-12-18T21:06:47.588Z,94887.36
2018-12-18T21:09:16.265Z,94885.03
2018-12-18T21:11:44.230Z,94892.03
2018-12-18T21:14:12.822Z,94889.67
2018-12-18T21:16:40.770Z,94885.39
2018-12-18T21:19:08.858Z,94884.30
2018-12-18T21:21:37.016Z,94883.84
2018-12-18T21:24:05.201Z,94881.41
2018-12-18T21:26:34.007Z,94884.97
2018-12-18T21:29:01.707Z,94876.73
2018-12-18T21:31:29.642Z,94878.09
2018-12-18T21:33:57.521Z,94878.56
2018-12-18T21:36:29.814Z,94877.19
2018-12-18T21:38:57.499Z,94873.98
2018-12-18T21:41:25.173Z,94863.84
2018-12-18T21:43:52.902Z,94865.57
2018-12-18T21:46:20.683Z,94870.95
2018-12-18T21:48:48.543Z,94872.33
2018-12-18T21:51:16.889Z,94871.06
2018-12-18T21:53:46.690Z,94866.30
2018-12-18T21:56:14.705Z,94864.47
2018-12-18T21:58:42.621Z,94864.05
2018-12-18T22:01:11.722Z,94857.23
2018-12-18T22:03:39.743Z,94856.00
2018-12-18T22:06:07.823Z,94853.59
2018-12-18T22:08:36.907Z,94852.30
2018-12-18T22:11:05.063Z,94843.30
2018-12-18T22:13:36.339Z,94851.55
2018-12-18T22:16:04.401Z,94847.45
2018-12-18T22:18:32.369Z,94841.48
2018-12-18T22:21:01.483Z,94843.20
2018-12-18T22:23:30.601Z,94836.13
2018-12-18T22:25:58.647Z,94837.74
2018-12-18T22:28:26.547Z,94844.42
2018-12-18T22:30:54.418Z,94838.55
2018-12-18T22:33:22.268Z,94835.97
2018-12-18T22:35:49.954Z,94834.02
2018-12-18T22:38:17.771Z,94829.21
2018-12-18T22:40:45.689Z,94819.64
2018-12-18T22:43:13.725Z,94820.36
2018-12-18T22:45:41.551Z,94815.62
2018-12-18T22:48:09.418Z,94820.36
2018-12-18T22:50:37.406Z,94814.45
2018-12-18T22:53:05.244Z,94810.84
2018-12-18T22:55:32.963Z,94813.27
2018-12-18T22:58:01.007Z,94815.27
2018-12-18T23:00:34.286Z,94807.23
2018-12-18T23:03:01.933Z,94797.61
2018-12-18T23:05:30.395Z,94792.22
2018-12-18T23:07:59.119Z,94789.33
2018-12-18T23:10:27.044Z,94783.56
2018-12-18T23:12:54.818Z,94780.62
2018-12-18T23:15:22.526Z,94774.50
2018-12-18T23:17:50.495Z,94769.88
2018-12-18T23:20:18.142Z,94765.50
2018-12-18T23:22:45.749Z,94756.95
2018-12-18T23:25:13.416Z,94749.44
2018-12-18T23:27:41.291Z,94745.62
2018-12-18T23:30:09.160Z,94749.14
2018-12-18T23:32:37.032Z,94747.52
2018-12-18T23:35:04.729Z,94750.46
2018-12-18T23:37:35.263Z,94740.95
2018-12-18T23:40:04.245Z,94730.78
2018-12-18T23:42:31.896Z,94731.59
2018-12-18T23:44:59.507Z,94738.16
2018-12-18T23:47:27.175Z,94727.42
2018-12-18T23:49:54.765Z,94726.45
2018-12-18T23:52:22.680Z,94729.36
2018-12-18T23:54:50.293Z,94725.28
2018-12-18T23:57:17.940Z,94723.63
2018-12-18T23:59:45.592Z,94722.20
